createdAt,value
2023-05-31T00:00:31.070Z,939.85
2023-05-31T00:01:31.389Z,939.83
2023-05-31T00:02:32.483Z,939.85
2023-05-31T00:03:32.633Z,939.86
2023-05-31T00:04:33.352Z,939.84
2023-05-31T00:05:34.107Z,939.85
2023-05-31T00:06:34.674Z,939.85
2023-05-31T00:07:35.589Z,939.85
2023-05-31T00:08:36.290Z,939.86
2023-05-31T00:09:36.992Z,939.86
2023-05-31T00:10:37.994Z,939.87
2023-05-31T00:11:38.849Z,939.85
2023-05-31T00:12:39.343Z,939.82
2023-05-31T00:13:40.036Z,939.87
2023-05-31T00:14:40.879Z,939.84
2023-05-31T00:15:41.024Z,939.86
2023-05-31T00:17:07.444Z,939.84
2023-05-31T00:18:01.680Z,939.83
2023-05-31T00:19:02.411Z,939.85
2023-05-31T00:20:03.325Z,939.84
2023-05-31T00:21:04.199Z,939.86
2023-05-31T00:22:05.132Z,939.87
2023-05-31T00:23:05.614Z,939.87
2023-05-31T00:24:06.131Z,939.88
2023-05-31T00:25:06.602Z,939.9
2023-05-31T00:26:07.087Z,939.88
2023-05-31T00:27:07.944Z,939.91
2023-05-31T00:28:08.751Z,939.9
2023-05-31T00:29:09.716Z,939.9
2023-05-31T00:30:10.009Z,939.9
2023-05-31T00:31:10.537Z,939.91
2023-05-31T00:32:10.866Z,939.92
2023-05-31T00:33:11.904Z,939.9
2023-05-31T00:34:12.881Z,939.88
2023-05-31T00:35:13.339Z,939.9
2023-05-31T00:36:13.914Z,939.88
2023-05-31T00:37:14.634Z,939.9
2023-05-31T00:38:15.324Z,939.86
2023-05-31T00:39:15.832Z,939.9
2023-05-31T00:40:16.534Z,939.89
2023-05-31T00:41:17.044Z,939.9
2023-05-31T00:42:17.827Z,939.92
2023-05-31T00:43:18.366Z,939.91
2023-05-31T00:44:19.156Z,939.89
2023-05-31T00:45:20.020Z,939.89
2023-05-31T00:46:20.934Z,939.92
2023-05-31T00:47:21.643Z,939.92
2023-05-31T00:48:22.026Z,939.88
2023-05-31T00:49:23.019Z,939.85
2023-05-31T00:50:23.260Z,939.91
2023-05-31T00:51:23.387Z,939.88
2023-05-31T00:52:23.927Z,939.84
2023-05-31T00:53:24.272Z,939.85
2023-05-31T00:54:25.036Z,939.85
2023-05-31T00:55:25.457Z,939.85
2023-05-31T00:56:26.371Z,939.85
2023-05-31T00:57:27.410Z,939.87
2023-05-31T00:58:28.292Z,939.88
2023-05-31T00:59:28.577Z,939.82
2023-05-31T01:00:29.493Z,939.83
2023-05-31T01:01:29.856Z,939.83
2023-05-31T01:02:30.041Z,939.81
2023-05-31T01:03:30.933Z,939.81
2023-05-31T01:04:31.194Z,939.83
2023-05-31T01:05:31.737Z,939.81
2023-05-31T01:06:31.880Z,939.83
2023-05-31T01:07:32.404Z,939.82
2023-05-31T01:08:32.749Z,939.81
2023-05-31T01:09:33.264Z,939.85
2023-05-31T01:10:34.202Z,939.81
2023-05-31T01:11:34.362Z,939.8
2023-05-31T01:12:35.192Z,939.81
2023-05-31T01:13:36.087Z,939.79
2023-05-31T01:14:36.998Z,939.8
2023-05-31T01:15:37.271Z,939.81
2023-05-31T01:16:38.068Z,939.83
2023-05-31T01:17:38.170Z,939.8
2023-05-31T01:18:39.112Z,939.81
2023-05-31T01:19:39.996Z,939.82
2023-05-31T01:20:40.926Z,939.84
2023-05-31T01:21:41.912Z,939.86
2023-05-31T01:22:42.825Z,939.83
2023-05-31T01:23:43.313Z,939.87
2023-05-31T01:24:44.058Z,939.9
2023-05-31T01:25:45.072Z,939.91
2023-05-31T01:26:45.769Z,939.9
2023-05-31T01:27:46.000Z,939.85
2023-05-31T01:28:46.926Z,939.87
2023-05-31T01:29:47.433Z,939.82
2023-05-31T01:30:48.132Z,939.85
2023-05-31T01:31:48.297Z,939.86
2023-05-31T01:32:49.338Z,939.86
2023-05-31T01:33:49.530Z,939.86
2023-05-31T01:34:50.295Z,939.86
2023-05-31T01:35:50.395Z,939.85
2023-05-31T01:36:51.138Z,939.87
2023-05-31T01:37:51.697Z,939.86
2023-05-31T01:38:52.435Z,939.85
2023-05-31T01:39:53.009Z,939.89
2023-05-31T01:40:53.138Z,939.81
2023-05-31T01:41:53.604Z,939.83
2023-05-31T01:42:53.933Z,939.83
2023-05-31T01:43:54.657Z,939.82
2023-05-31T01:44:55.554Z,939.82
2023-05-31T01:45:56.096Z,939.81
2023-05-31T01:46:57.023Z,939.79
2023-05-31T01:47:57.754Z,939.8
2023-05-31T01:48:58.522Z,939.79
2023-05-31T01:49:59.237Z,939.77
2023-05-31T01:51:00.284Z,939.77
2023-05-31T01:52:01.087Z,939.73
2023-05-31T01:53:01.754Z,939.72
2023-05-31T01:54:02.265Z,939.73
2023-05-31T01:55:03.064Z,939.7
2023-05-31T01:56:03.496Z,939.72
2023-05-31T01:57:04.074Z,939.68
2023-05-31T01:58:04.373Z,939.63
2023-05-31T01:59:05.289Z,939.69
2023-05-31T02:00:06.002Z,939.7
2023-05-31T02:01:06.902Z,939.68
2023-05-31T02:02:07.283Z,939.7
2023-05-31T02:03:08.282Z,939.68
2023-05-31T02:04:09.026Z,939.72
2023-05-31T02:05:09.146Z,939.67
2023-05-31T02:06:10.030Z,939.68
2023-05-31T02:07:10.550Z,939.7
2023-05-31T02:08:11.276Z,939.68
2023-05-31T02:09:11.804Z,939.68
2023-05-31T02:10:12.333Z,939.66
2023-05-31T02:11:12.920Z,939.68
2023-05-31T02:12:13.080Z,939.69
2023-05-31T02:13:13.569Z,939.68
2023-05-31T02:15:14.754Z,939.73
2023-05-31T02:16:15.047Z,939.68
2023-05-31T02:17:15.941Z,939.71
2023-05-31T02:18:16.989Z,939.73
2023-05-31T02:19:17.766Z,939.69
2023-05-31T02:20:18.960Z,939.69
2023-05-31T02:21:19.608Z,939.7
2023-05-31T02:22:20.541Z,939.66
2023-05-31T02:23:21.264Z,939.68
2023-05-31T02:24:21.776Z,939.58
2023-05-31T02:25:22.052Z,939.55
2023-05-31T02:26:22.936Z,939.6
2023-05-31T02:27:23.691Z,939.59
2023-05-31T02:28:24.140Z,939.55
2023-05-31T02:29:25.099Z,939.55
2023-05-31T02:30:25.607Z,939.54
2023-05-31T02:31:26.316Z,939.56
2023-05-31T02:32:26.704Z,939.56
2023-05-31T02:33:27.392Z,939.59
2023-05-31T02:34:27.864Z,939.61
2023-05-31T02:35:28.393Z,939.62
2023-05-31T02:36:28.657Z,939.62
2023-05-31T02:37:28.964Z,939.63
2023-05-31T02:38:29.246Z,939.65
2023-05-31T02:39:29.924Z,939.67
2023-05-31T02:40:30.653Z,939.63
2023-05-31T02:41:30.937Z,939.69
2023-05-31T02:42:31.823Z,939.65
2023-05-31T02:43:32.574Z,939.69
2023-05-31T02:44:32.918Z,939.67
2023-05-31T02:45:33.821Z,939.68
2023-05-31T02:46:34.121Z,939.68
2023-05-31T02:47:34.372Z,939.66
2023-05-31T02:48:35.168Z,939.65
2023-05-31T02:49:36.096Z,939.68
2023-05-31T02:50:36.584Z,939.66
2023-05-31T02:51:37.149Z,939.68
2023-05-31T02:52:37.538Z,939.67
2023-05-31T02:53:38.507Z,939.64
2023-05-31T02:54:39.008Z,939.64
2023-05-31T02:55:39.484Z,939.7
2023-05-31T02:56:39.723Z,939.65
2023-05-31T02:57:40.026Z,939.67
2023-05-31T02:58:40.733Z,939.66
2023-05-31T02:59:41.296Z,939.61
2023-05-31T03:00:41.841Z,939.66
2023-05-31T03:01:42.422Z,939.66
2023-05-31T03:02:43.247Z,939.68
2023-05-31T03:03:43.930Z,939.66
2023-05-31T03:04:44.715Z,939.67
2023-05-31T03:05:45.449Z,939.71
2023-05-31T03:06:45.866Z,939.7
2023-05-31T03:07:46.636Z,939.72
2023-05-31T03:08:47.152Z,939.71
2023-05-31T03:09:47.459Z,939.71
2023-05-31T03:10:48.230Z,939.7
2023-05-31T03:11:48.386Z,939.71
2023-05-31T03:12:48.708Z,939.65
2023-05-31T03:13:49.318Z,939.69
2023-05-31T03:14:49.434Z,939.65
2023-05-31T03:15:50.390Z,939.66
2023-05-31T03:16:51.042Z,939.67
2023-05-31T03:17:51.124Z,939.67
2023-05-31T03:18:51.507Z,939.66
2023-05-31T03:19:52.282Z,939.65
2023-05-31T03:20:53.030Z,939.65
2023-05-31T03:21:53.220Z,939.63
2023-05-31T03:22:53.738Z,939.63
2023-05-31T03:23:54.510Z,939.64
2023-05-31T03:24:55.259Z,939.63
2023-05-31T03:25:56.225Z,939.64
2023-05-31T03:26:56.477Z,939.65
2023-05-31T03:27:57.024Z,939.63
2023-05-31T03:28:57.738Z,939.64
2023-05-31T03:29:58.663Z,939.62
2023-05-31T03:30:59.234Z,939.64
2023-05-31T03:31:59.375Z,939.63
2023-05-31T03:33:00.304Z,939.66
2023-05-31T03:34:00.764Z,939.65
2023-05-31T03:35:01.294Z,939.61
2023-05-31T03:36:01.974Z,939.64
2023-05-31T03:37:02.260Z,939.63
2023-05-31T03:38:02.529Z,939.61
2023-05-31T03:39:03.437Z,939.61
2023-05-31T03:40:04.336Z,939.63
2023-05-31T03:41:05.163Z,939.66
2023-05-31T03:42:05.396Z,939.61
2023-05-31T03:43:06.133Z,939.65
2023-05-31T03:44:06.897Z,939.64
2023-05-31T03:45:07.576Z,939.6
2023-05-31T03:46:08.507Z,939.6
2023-05-31T03:47:09.135Z,939.6
2023-05-31T03:48:09.352Z,939.59
2023-05-31T03:49:10.082Z,939.59
2023-05-31T03:50:10.361Z,939.61
2023-05-31T03:51:10.643Z,939.61
2023-05-31T03:52:11.556Z,939.56
2023-05-31T03:53:12.068Z,939.63
2023-05-31T03:54:12.763Z,939.61
2023-05-31T03:55:13.843Z,939.6
2023-05-31T03:56:14.849Z,939.62
2023-05-31T03:57:15.238Z,939.62
2023-05-31T03:58:15.734Z,939.57
2023-05-31T03:59:16.028Z,939.61
2023-05-31T04:00:16.152Z,939.61
2023-05-31T04:01:16.950Z,939.61
2023-05-31T04:02:17.396Z,939.57
2023-05-31T04:03:18.502Z,939.57
2023-05-31T04:04:19.117Z,939.57
2023-05-31T04:06:19.679Z,939.58
2023-05-31T04:07:20.774Z,939.57
2023-05-31T04:08:21.169Z,939.57
2023-05-31T04:09:22.176Z,939.55
2023-05-31T04:10:22.938Z,939.55
2023-05-31T04:11:23.454Z,939.58
2023-05-31T04:12:24.186Z,939.58
2023-05-31T04:13:24.974Z,939.61
2023-05-31T04:14:25.235Z,939.62
2023-05-31T04:15:25.734Z,939.63
2023-05-31T04:16:27.199Z,939.66
2023-05-31T04:17:26.942Z,939.67
2023-05-31T04:18:27.916Z,939.69
2023-05-31T04:19:28.487Z,939.7
2023-05-31T04:20:29.385Z,939.69
2023-05-31T04:21:30.295Z,939.73
2023-05-31T04:22:31.066Z,939.76
2023-05-31T04:23:31.768Z,939.71
2023-05-31T04:24:32.518Z,939.73
2023-05-31T04:25:33.455Z,939.73
2023-05-31T04:26:33.930Z,939.72
2023-05-31T04:27:34.788Z,939.72
2023-05-31T04:28:35.438Z,939.68
2023-05-31T04:29:36.161Z,939.74
2023-05-31T04:30:36.945Z,939.75
2023-05-31T04:31:49.717Z,939.71
2023-05-31T04:32:38.273Z,939.71
2023-05-31T04:33:38.566Z,939.75
2023-05-31T04:34:39.252Z,939.77
2023-05-31T04:35:40.020Z,939.76
2023-05-31T04:36:40.776Z,939.74
2023-05-31T04:37:41.011Z,939.77
2023-05-31T04:38:41.690Z,939.79
2023-05-31T04:39:42.775Z,939.78
2023-05-31T04:40:43.142Z,939.81
2023-05-31T04:41:43.445Z,939.79
2023-05-31T04:42:44.429Z,939.81
2023-05-31T04:43:44.679Z,939.83
2023-05-31T04:44:45.282Z,939.8
2023-05-31T04:45:45.991Z,939.82
2023-05-31T04:46:46.964Z,939.85
2023-05-31T04:47:47.279Z,939.83
2023-05-31T04:48:47.488Z,939.85
2023-05-31T04:49:54.559Z,939.86
2023-05-31T04:50:49.206Z,939.92
2023-05-31T04:51:49.929Z,939.89
2023-05-31T04:52:50.893Z,939.88
2023-05-31T04:53:51.586Z,939.93
2023-05-31T04:54:52.277Z,939.88
2023-05-31T04:55:53.032Z,939.9
2023-05-31T04:56:53.526Z,939.9
2023-05-31T04:57:54.219Z,939.87
2023-05-31T04:58:55.285Z,939.88
2023-05-31T04:59:55.757Z,939.88
2023-05-31T05:00:56.703Z,939.9
2023-05-31T05:01:57.462Z,939.87
2023-05-31T05:02:58.455Z,939.88
2023-05-31T05:03:59.019Z,939.88
2023-05-31T05:04:59.259Z,939.82
2023-05-31T05:06:00.083Z,939.86
2023-05-31T05:07:00.606Z,939.92
2023-05-31T05:08:01.674Z,939.91
2023-05-31T05:09:02.257Z,939.9
2023-05-31T05:10:02.981Z,939.92
2023-05-31T05:11:03.301Z,939.96
2023-05-31T05:12:04.302Z,939.97
2023-05-31T05:13:05.221Z,939.97
2023-05-31T05:14:05.920Z,940.01
2023-05-31T05:15:06.811Z,940
2023-05-31T05:16:06.954Z,940.02
2023-05-31T05:17:08.056Z,940.02
2023-05-31T05:18:08.302Z,940.05
2023-05-31T05:19:08.695Z,940.06
2023-05-31T05:20:09.494Z,940.05
2023-05-31T05:21:10.202Z,940.06
2023-05-31T05:22:10.466Z,940.07
2023-05-31T05:23:11.199Z,940.06
2023-05-31T05:24:11.886Z,940.04
2023-05-31T05:25:12.486Z,940.02
2023-05-31T05:26:13.337Z,940.05
2023-05-31T05:27:14.285Z,939.99
2023-05-31T05:28:14.738Z,939.98
2023-05-31T05:29:15.815Z,939.99
2023-05-31T05:30:16.776Z,939.96
2023-05-31T05:31:17.001Z,939.98
2023-05-31T05:33:17.983Z,939.99
2023-05-31T05:34:19.062Z,940.01
2023-05-31T05:35:19.940Z,939.99
2023-05-31T05:36:20.437Z,940.02
2023-05-31T05:37:21.091Z,940.04
2023-05-31T05:38:22.021Z,940.02
2023-05-31T05:39:22.149Z,940.07
2023-05-31T05:40:22.828Z,940.03
2023-05-31T05:41:22.930Z,940.04
2023-05-31T05:42:23.751Z,940.02
2023-05-31T05:43:24.137Z,940.03
2023-05-31T05:44:24.449Z,940.03
2023-05-31T05:45:24.719Z,940
2023-05-31T05:46:25.452Z,940.03
2023-05-31T05:47:26.344Z,940.03
2023-05-31T05:50:29.573Z,940.04
2023-05-31T05:51:29.817Z,940
2023-05-31T05:52:30.520Z,940.01
2023-05-31T05:53:31.417Z,940.06
2023-05-31T05:54:32.152Z,940.05
2023-05-31T05:55:32.655Z,940
2023-05-31T05:56:33.416Z,940.01
2023-05-31T05:57:33.724Z,940.04
2023-05-31T05:58:34.454Z,940.01
2023-05-31T05:59:35.341Z,940.02
2023-05-31T06:00:35.863Z,940.01
2023-05-31T06:01:36.536Z,940.04
2023-05-31T06:02:37.230Z,940.05
2023-05-31T06:03:37.641Z,940.04
2023-05-31T06:04:38.336Z,940.05
2023-05-31T06:05:39.269Z,940.08
2023-05-31T06:06:40.132Z,940.1
2023-05-31T06:07:40.756Z,940.08
2023-05-31T06:08:41.650Z,940.09
2023-05-31T06:09:42.180Z,940.11
2023-05-31T06:10:42.517Z,940.1
2023-05-31T06:11:42.936Z,940.08
2023-05-31T06:12:43.420Z,940.15
2023-05-31T06:13:43.924Z,940.15
2023-05-31T06:14:44.759Z,940.15
2023-05-31T06:15:45.789Z,940.16
2023-05-31T06:16:46.533Z,940.15
2023-05-31T06:17:46.680Z,940.17
2023-05-31T06:18:47.536Z,940.16
2023-05-31T06:19:48.226Z,940.19
2023-05-31T06:20:48.517Z,940.14
2023-05-31T06:21:48.758Z,940.11
2023-05-31T06:22:49.295Z,940.11
2023-05-31T06:23:49.620Z,940.17
2023-05-31T06:24:50.329Z,940.15
2023-05-31T06:25:50.650Z,940.13
2023-05-31T06:26:51.172Z,940.15
2023-05-31T06:27:51.870Z,940.17
2023-05-31T06:28:52.786Z,940.14
2023-05-31T06:29:53.734Z,940.17
2023-05-31T06:30:54.664Z,940.21
2023-05-31T06:31:55.158Z,940.16
2023-05-31T06:32:55.737Z,940.18
2023-05-31T06:33:56.059Z,940.19
2023-05-31T06:34:56.896Z,940.17
2023-05-31T06:35:57.888Z,940.16
2023-05-31T06:36:58.466Z,940.16
2023-05-31T06:37:59.466Z,940.19
2023-05-31T06:39:00.347Z,940.19
2023-05-31T06:40:01.068Z,940.18
2023-05-31T06:41:01.619Z,940.22
2023-05-31T06:42:02.221Z,940.23
2023-05-31T06:43:03.069Z,940.24
2023-05-31T06:44:03.795Z,940.16
2023-05-31T06:45:04.423Z,940.2
2023-05-31T06:46:05.181Z,940.18
2023-05-31T06:47:06.113Z,940.18
2023-05-31T06:48:06.309Z,940.17
2023-05-31T06:49:12.166Z,940.18
2023-05-31T06:50:06.724Z,940.17
2023-05-31T06:51:07.795Z,940.18
2023-05-31T06:52:08.063Z,940.17
2023-05-31T06:53:08.502Z,940.16
2023-05-31T06:54:08.696Z,940.15
2023-05-31T06:56:09.928Z,940.1
2023-05-31T06:57:10.413Z,940.17
2023-05-31T06:58:10.717Z,940.17
2023-05-31T06:59:11.405Z,940.18
2023-05-31T07:00:12.113Z,940.17
2023-05-31T07:01:13.169Z,940.19
2023-05-31T07:02:13.555Z,940.17
2023-05-31T07:03:13.859Z,940.2
2023-05-31T07:04:13.962Z,940.19
2023-05-31T07:05:14.654Z,940.2
2023-05-31T07:06:15.414Z,940.22
2023-05-31T07:07:16.191Z,940.22
2023-05-31T07:08:16.375Z,940.24
2023-05-31T07:09:16.995Z,940.24
2023-05-31T07:10:17.893Z,940.24
2023-05-31T07:11:18.826Z,940.23
2023-05-31T07:12:19.215Z,940.24
2023-05-31T07:13:19.917Z,940.25
2023-05-31T07:14:20.655Z,940.22
2023-05-31T07:15:21.196Z,940.24
2023-05-31T07:16:21.794Z,940.23
2023-05-31T07:17:22.081Z,940.23
2023-05-31T07:18:22.334Z,940.24
2023-05-31T07:19:23.301Z,940.22
2023-05-31T07:20:24.052Z,940.24
2023-05-31T07:21:25.114Z,940.27
2023-05-31T07:22:25.411Z,940.29
2023-05-31T07:23:25.544Z,940.26
2023-05-31T07:24:26.467Z,940.24
2023-05-31T07:25:27.359Z,940.21
2023-05-31T07:26:28.019Z,940.24
2023-05-31T07:27:28.735Z,940.18
2023-05-31T07:28:29.461Z,940.23
2023-05-31T07:29:30.159Z,940.2
2023-05-31T07:30:31.078Z,940.2
2023-05-31T07:31:31.774Z,940.19
2023-05-31T07:32:32.325Z,940.2
2023-05-31T07:33:32.779Z,940.17
2023-05-31T07:34:33.181Z,940.2
2023-05-31T07:35:33.903Z,940.17
2023-05-31T07:36:34.448Z,940.19
2023-05-31T07:37:35.348Z,940.17
2023-05-31T07:38:36.230Z,940.18
2023-05-31T07:39:37.145Z,940.14
2023-05-31T07:40:38.016Z,940.16
2023-05-31T07:41:38.521Z,940.12
2023-05-31T07:42:38.831Z,940.18
2023-05-31T07:43:39.025Z,940.15
2023-05-31T07:44:39.543Z,940.18
2023-05-31T07:45:39.655Z,940.23
2023-05-31T07:46:40.632Z,940.28
2023-05-31T07:47:41.225Z,940.27
2023-05-31T07:48:41.524Z,940.29
2023-05-31T07:49:41.995Z,940.29
2023-05-31T07:50:42.723Z,940.23
2023-05-31T07:51:43.487Z,940.28
2023-05-31T07:52:43.954Z,940.28
2023-05-31T07:53:44.200Z,940.28
2023-05-31T07:54:44.930Z,940.28
2023-05-31T07:55:45.857Z,940.27
2023-05-31T07:56:45.983Z,940.25
2023-05-31T07:57:46.492Z,940.22
2023-05-31T07:58:47.429Z,940.19
2023-05-31T07:59:48.202Z,940.19
2023-05-31T08:00:49.099Z,940.15
2023-05-31T08:01:49.593Z,940.17
2023-05-31T08:02:50.352Z,940.15
2023-05-31T08:03:51.280Z,940.07
2023-05-31T08:04:51.836Z,940.11
2023-05-31T08:05:52.583Z,940.1
2023-05-31T08:06:52.338Z,940.08
2023-05-31T08:07:52.911Z,940.08
2023-05-31T08:08:53.060Z,940.05
2023-05-31T08:09:54.011Z,940.04
2023-05-31T08:10:54.722Z,940.04
2023-05-31T08:11:54.960Z,940.04
2023-05-31T08:12:56.010Z,940.03
2023-05-31T08:13:56.307Z,940.03
2023-05-31T08:14:57.428Z,940.01
2023-05-31T08:15:58.376Z,940.09
2023-05-31T08:16:59.130Z,940.05
2023-05-31T08:17:59.428Z,940.06
2023-05-31T08:18:59.549Z,940.1
2023-05-31T08:20:00.528Z,940.09
2023-05-31T08:21:01.636Z,940.11
2023-05-31T08:22:02.206Z,940.05
2023-05-31T08:23:03.234Z,940.04
2023-05-31T08:24:04.019Z,940.04
2023-05-31T08:25:04.967Z,940.06
2023-05-31T08:26:05.842Z,940.05
2023-05-31T08:27:06.552Z,940.07
2023-05-31T08:28:07.633Z,940.1
2023-05-31T08:29:08.536Z,940.07
2023-05-31T08:30:08.724Z,940.1
2023-05-31T08:31:09.715Z,940.09
2023-05-31T08:32:09.885Z,940.09
2023-05-31T08:33:10.514Z,940.1
2023-05-31T08:34:11.471Z,940.11
2023-05-31T08:35:12.581Z,940.06
2023-05-31T08:36:13.656Z,940.05
2023-05-31T08:37:14.576Z,940.05
2023-05-31T08:38:15.516Z,940
2023-05-31T08:39:15.661Z,940
2023-05-31T08:40:16.631Z,939.96
2023-05-31T08:41:17.237Z,939.92
2023-05-31T08:42:17.995Z,939.96
2023-05-31T08:43:18.690Z,939.95
2023-05-31T08:44:19.271Z,939.93
2023-05-31T08:45:19.476Z,939.95
2023-05-31T08:46:20.016Z,939.92
2023-05-31T08:47:21.064Z,939.94
2023-05-31T08:48:21.240Z,939.88
2023-05-31T08:49:21.964Z,939.92
2023-05-31T08:50:23.045Z,939.91
2023-05-31T08:51:23.816Z,939.93
2023-05-31T08:52:24.531Z,939.91
2023-05-31T08:53:25.584Z,939.91
2023-05-31T08:54:26.348Z,939.9
2023-05-31T08:55:27.078Z,939.85
2023-05-31T08:56:27.570Z,939.88
2023-05-31T08:57:27.999Z,939.85
2023-05-31T08:58:28.956Z,939.81
2023-05-31T08:59:29.919Z,939.77
2023-05-31T09:00:30.233Z,939.78
2023-05-31T09:01:30.944Z,939.85
2023-05-31T09:02:31.925Z,939.84
2023-05-31T09:03:32.924Z,939.8
2023-05-31T09:04:33.913Z,939.9
2023-05-31T09:05:34.177Z,939.91
2023-05-31T09:06:34.331Z,939.91
2023-05-31T09:07:35.071Z,939.92
2023-05-31T09:08:35.784Z,939.97
2023-05-31T09:09:36.608Z,939.97
2023-05-31T09:10:37.146Z,939.92
2023-05-31T09:11:37.730Z,939.97
2023-05-31T09:12:38.657Z,939.97
2023-05-31T09:13:39.725Z,939.96
2023-05-31T09:14:40.506Z,939.94
2023-05-31T09:15:41.493Z,939.94
2023-05-31T09:16:41.936Z,939.94
2023-05-31T09:17:42.357Z,939.93
2023-05-31T09:18:43.111Z,939.94
2023-05-31T09:19:44.014Z,939.91
2023-05-31T09:20:46.906Z,939.91
2023-05-31T09:21:45.330Z,939.87
2023-05-31T09:22:45.581Z,939.87
2023-05-31T09:23:46.613Z,939.91
2023-05-31T09:24:47.522Z,939.91
2023-05-31T09:25:48.533Z,939.9
2023-05-31T09:26:49.482Z,939.86
2023-05-31T09:27:50.256Z,939.88
2023-05-31T09:28:51.177Z,939.88
2023-05-31T09:29:52.100Z,939.81
2023-05-31T09:30:52.826Z,939.87
2023-05-31T09:31:53.576Z,939.87
2023-05-31T09:32:53.726Z,939.85
2023-05-31T09:33:54.750Z,939.81
2023-05-31T09:34:55.521Z,939.82
2023-05-31T09:35:56.490Z,939.79
2023-05-31T09:36:56.610Z,939.83
2023-05-31T09:37:57.311Z,939.8
2023-05-31T09:38:57.874Z,939.79
2023-05-31T09:39:58.066Z,939.74
2023-05-31T09:40:58.883Z,939.8
2023-05-31T09:41:59.732Z,939.8
2023-05-31T09:43:00.470Z,939.75
2023-05-31T09:44:00.711Z,939.74
2023-05-31T09:45:01.428Z,939.73
2023-05-31T09:46:02.007Z,939.77
2023-05-31T09:47:03.054Z,939.72
2023-05-31T09:48:04.059Z,939.68
2023-05-31T09:49:04.844Z,939.7
2023-05-31T09:50:05.561Z,939.69
2023-05-31T09:51:05.874Z,939.68
2023-05-31T09:52:06.628Z,939.67
2023-05-31T09:53:07.340Z,939.67
2023-05-31T09:54:08.593Z,939.64
2023-05-31T09:55:08.837Z,939.65
2023-05-31T09:56:08.974Z,939.65
2023-05-31T09:57:09.736Z,939.62
2023-05-31T09:58:10.043Z,939.62
2023-05-31T09:59:10.576Z,939.61
2023-05-31T10:00:11.535Z,939.62
2023-05-31T10:01:12.076Z,939.62
2023-05-31T10:02:12.880Z,939.62
2023-05-31T10:03:13.999Z,939.63
2023-05-31T10:04:14.561Z,939.63
2023-05-31T10:05:15.290Z,939.63
2023-05-31T10:06:16.227Z,939.6
2023-05-31T10:07:17.823Z,939.58
2023-05-31T10:08:18.077Z,939.57
2023-05-31T10:09:18.573Z,939.59
2023-05-31T10:10:19.514Z,939.62
2023-05-31T10:11:20.508Z,939.6
2023-05-31T10:12:21.541Z,939.59
2023-05-31T10:13:21.858Z,939.57
2023-05-31T10:14:22.583Z,939.57
2023-05-31T10:15:23.288Z,939.6
2023-05-31T10:16:23.958Z,939.55
2023-05-31T10:17:23.987Z,939.54
2023-05-31T10:18:24.110Z,939.53
2023-05-31T10:19:24.455Z,939.59
2023-05-31T10:20:24.999Z,939.56
2023-05-31T10:21:25.911Z,939.58
2023-05-31T10:22:26.650Z,939.6
2023-05-31T10:23:27.397Z,939.6
2023-05-31T10:24:27.967Z,939.59
2023-05-31T10:25:28.843Z,939.58
2023-05-31T10:26:29.578Z,939.62
2023-05-31T10:27:30.542Z,939.56
2023-05-31T10:28:30.665Z,939.56
2023-05-31T10:29:31.387Z,939.62
2023-05-31T10:30:32.140Z,939.57
2023-05-31T10:31:33.055Z,939.56
2023-05-31T10:32:33.718Z,939.62
2023-05-31T10:33:34.755Z,939.59
2023-05-31T10:34:35.239Z,939.62
2023-05-31T10:35:35.972Z,939.52
2023-05-31T10:36:36.535Z,939.55
2023-05-31T10:37:37.037Z,939.52
2023-05-31T10:38:37.366Z,939.53
2023-05-31T10:39:38.085Z,939.5
2023-05-31T10:40:38.815Z,939.48
2023-05-31T10:41:39.723Z,939.5
2023-05-31T10:42:40.629Z,939.51
2023-05-31T10:43:41.563Z,939.48
2023-05-31T10:44:42.334Z,939.49
2023-05-31T10:45:43.241Z,939.47
2023-05-31T10:46:44.384Z,939.46
2023-05-31T10:47:45.330Z,939.46
2023-05-31T10:48:46.278Z,939.45
2023-05-31T10:49:47.255Z,939.41
2023-05-31T10:50:47.977Z,939.39
2023-05-31T10:51:48.313Z,939.42
2023-05-31T10:52:49.049Z,939.41
2023-05-31T10:53:49.602Z,939.41
2023-05-31T10:54:50.013Z,939.42
2023-05-31T10:55:50.954Z,939.39
2023-05-31T10:56:51.761Z,939.41
2023-05-31T10:57:52.288Z,939.39
2023-05-31T10:58:52.998Z,939.38
2023-05-31T10:59:53.690Z,939.34
2023-05-31T11:00:54.441Z,939.37
2023-05-31T11:01:54.954Z,939.35
2023-05-31T11:02:55.870Z,939.34
2023-05-31T11:03:56.606Z,939.32
2023-05-31T11:04:56.859Z,939.31
2023-05-31T11:05:57.592Z,939.34
2023-05-31T11:06:58.565Z,939.29
2023-05-31T11:07:59.326Z,939.32
2023-05-31T11:09:00.151Z,939.33
2023-05-31T11:10:01.381Z,939.26
2023-05-31T11:11:01.747Z,939.32
2023-05-31T11:12:02.255Z,939.3
2023-05-31T11:13:02.886Z,939.27
2023-05-31T11:14:03.585Z,939.26
2023-05-31T11:15:04.042Z,939.28
2023-05-31T11:16:04.949Z,939.27
2023-05-31T11:17:05.298Z,939.28
2023-05-31T11:18:05.819Z,939.27
2023-05-31T11:19:06.917Z,939.27
2023-05-31T11:20:06.753Z,939.27
2023-05-31T11:21:07.533Z,939.25
2023-05-31T11:22:08.147Z,939.24
2023-05-31T11:23:08.472Z,939.23
2023-05-31T11:24:09.185Z,939.24
2023-05-31T11:25:09.865Z,939.16
2023-05-31T11:26:10.233Z,939.18
2023-05-31T11:27:11.174Z,939.13
2023-05-31T11:28:12.150Z,939.1
2023-05-31T11:29:12.336Z,939.16
2023-05-31T11:30:13.292Z,939.15
2023-05-31T11:31:14.097Z,939.21
2023-05-31T11:32:14.872Z,939.17
2023-05-31T11:33:15.234Z,939.17
2023-05-31T11:34:15.950Z,939.18
2023-05-31T11:35:16.787Z,939.17
2023-05-31T11:36:17.662Z,939.16
2023-05-31T11:37:18.370Z,939.15
2023-05-31T11:38:19.247Z,939.19
2023-05-31T11:39:19.760Z,939.14
2023-05-31T11:40:20.680Z,939.18
2023-05-31T11:41:22.231Z,939.14
2023-05-31T11:42:22.134Z,939.19
2023-05-31T11:43:22.856Z,939.14
2023-05-31T11:44:23.182Z,939.13
2023-05-31T11:45:23.628Z,939.17
2023-05-31T11:46:24.490Z,939.16
2023-05-31T11:47:25.478Z,939.19
2023-05-31T11:48:26.265Z,939.21
2023-05-31T11:49:27.238Z,939.2
2023-05-31T11:50:27.356Z,939.16
2023-05-31T11:51:28.057Z,939.14
2023-05-31T11:52:28.566Z,939.14
2023-05-31T11:53:29.473Z,939.14
2023-05-31T11:54:30.432Z,939.18
2023-05-31T11:55:30.892Z,939.13
2023-05-31T11:56:31.822Z,939.11
2023-05-31T11:57:32.321Z,939.12
2023-05-31T11:58:33.048Z,939.11
2023-05-31T11:59:33.202Z,939.1
2023-05-31T12:00:33.392Z,939.11
2023-05-31T12:01:33.982Z,939.08
2023-05-31T12:02:34.779Z,939.07
2023-05-31T12:03:35.167Z,939.07
2023-05-31T12:04:35.738Z,939.06
2023-05-31T12:05:36.792Z,939.11
2023-05-31T12:06:37.396Z,939.11
2023-05-31T12:07:38.108Z,939.06
2023-05-31T12:08:38.812Z,939.15
2023-05-31T12:09:39.569Z,939.1
2023-05-31T12:10:40.125Z,939.1
2023-05-31T12:11:41.008Z,939.12
2023-05-31T12:12:41.720Z,939.05
2023-05-31T12:13:42.151Z,939.03
2023-05-31T12:14:43.104Z,939.01
2023-05-31T12:15:43.368Z,939.01
2023-05-31T12:16:43.897Z,939.05
2023-05-31T12:17:44.888Z,938.95
2023-05-31T12:18:45.707Z,939
2023-05-31T12:19:46.314Z,938.98
2023-05-31T12:20:47.299Z,938.99
2023-05-31T12:21:47.749Z,938.98
2023-05-31T12:22:48.674Z,938.96
2023-05-31T12:23:49.369Z,939.01
2023-05-31T12:24:50.102Z,939.04
2023-05-31T12:25:50.298Z,939
2023-05-31T12:26:51.035Z,939.01
2023-05-31T12:27:51.950Z,938.99
2023-05-31T12:28:52.460Z,938.98
2023-05-31T12:29:54.569Z,938.96
2023-05-31T12:30:53.913Z,938.99
2023-05-31T12:31:55.002Z,938.98
2023-05-31T12:32:55.979Z,938.98
2023-05-31T12:33:56.069Z,938.98
2023-05-31T12:34:56.998Z,938.99
2023-05-31T12:35:57.524Z,938.96
2023-05-31T12:36:58.432Z,938.95
2023-05-31T12:37:59.164Z,938.91
2023-05-31T12:38:59.366Z,938.94
2023-05-31T12:40:00.320Z,938.95
2023-05-31T12:41:00.597Z,938.92
2023-05-31T12:42:01.310Z,938.91
2023-05-31T12:43:01.485Z,938.87
2023-05-31T12:44:02.577Z,938.88
2023-05-31T12:45:03.261Z,938.85
2023-05-31T12:46:04.156Z,938.84